Time;durP1;ratioP1;P1;durP2;ratioP2;P2;SDS_P1;SDS_P2;PMS_P1;PMS_P2;Temp;Humidity;BMP_temperature;BMP_pressure;BME280_temperature;BME280_humidity;BME280_pressure;Samples;Min_cycle;Max_cycle;Signal;HPM_P1;HPM_P2
2021/08/19 00:01:35;;;;;;;38.10;26.30;;;;;;;21.40;100.00;99442.44;1699512;83;21568;-61
2021/08/19 00:04:04;;;;;;;35.33;25.73;;;;;;;21.41;100.00;99438.74;1698337;84;21526;-60
2021/08/19 00:06:30;;;;;;;35.00;26.00;;;;;;;21.39;100.00;99439.00;1697195;83;21426;-59
2021/08/19 00:08:57;;;;;;;39.53;26.50;;;;;;;21.38;100.00;99437.42;1697179;83;21582;-59
2021/08/19 00:11:23;;;;;;;35.20;26.77;;;;;;;21.38;100.00;99430.80;1682914;84;21155;-60
2021/08/19 00:13:51;;;;;;;36.77;26.40;;;;;;;21.40;100.00;99427.32;1693574;83;20941;-60
2021/08/19 00:16:18;;;;;;;36.77;25.67;;;;;;;21.40;100.00;99425.99;1694236;83;21080;-60
2021/08/19 00:18:47;;;;;;;40.03;26.43;;;;;;;21.43;100.00;99421.47;1694013;83;20957;-59
2021/08/19 00:21:15;;;;;;;37.97;26.30;;;;;;;21.46;100.00;99420.14;1694282;84;20984;-59
2021/08/19 00:23:43;;;;;;;35.67;26.17;;;;;;;21.43;100.00;99410.08;1694645;83;21551;-59
2021/08/19 00:26:11;;;;;;;38.23;27.23;;;;;;;21.45;100.00;99413.27;1694369;83;20957;-60
2021/08/19 00:28:37;;;;;;;36.83;27.07;;;;;;;21.43;100.00;99404.78;1694445;84;20981;-59
2021/08/19 00:31:06;;;;;;;33.90;24.90;;;;;;;21.43;100.00;99406.89;1686213;83;21012;-60
2021/08/19 00:33:32;;;;;;;41.00;26.43;;;;;;;21.41;100.00;99406.39;1692712;83;21051;-59
2021/08/19 00:36:00;;;;;;;37.53;27.03;;;;;;;21.38;100.00;99413.56;1694144;83;20954;-60
2021/08/19 00:38:27;;;;;;;39.47;28.57;;;;;;;21.30;100.00;99414.91;1693002;84;21605;-59
2021/08/19 00:40:55;;;;;;;37.13;27.73;;;;;;;21.23;100.00;99417.59;1693711;83;21582;-59
2021/08/19 00:43:23;;;;;;;47.33;31.60;;;;;;;21.16;100.00;99423.19;1694160;84;21049;-59
2021/08/19 00:45:51;;;;;;;44.27;32.43;;;;;;;21.10;100.00;99421.62;1689017;83;21491;-59
2021/08/19 00:48:19;;;;;;;40.93;32.20;;;;;;;21.02;100.00;99423.52;1694227;84;21107;-59
2021/08/19 00:50:47;;;;;;;46.10;32.37;;;;;;;20.95;100.00;99433.11;1690105;83;20945;-60
2021/08/19 00:53:18;;;;;;;44.30;30.53;;;;;;;20.88;100.00;99425.98;1692402;83;21056;-60
2021/08/19 00:55:44;;;;;;;48.93;33.70;;;;;;;20.82;100.00;99422.55;1697455;84;20973;-59
2021/08/19 00:58:12;;;;;;;46.70;35.23;;;;;;;20.78;100.00;99429.98;1699035;84;21063;-59
2021/08/19 01:00:42;;;;;;;49.37;35.30;;;;;;;20.69;100.00;99428.97;1696460;83;21151;-59
2021/08/19 01:03:09;;;;;;;48.47;35.00;;;;;;;20.64;100.00;99428.42;1698655;83;21134;-59
2021/08/19 01:05:40;;;;;;;55.07;36.53;;;;;;;20.61;100.00;99430.31;1699709;83;21521;-59
2021/08/19 01:08:05;;;;;;;49.67;35.37;;;;;;;20.55;100.00;99424.22;1690608;83;21009;-59
2021/08/19 01:10:32;;;;;;;47.00;33.27;;;;;;;20.54;100.00;99423.17;1676184;83;20973;-59
2021/08/19 01:12:58;;;;;;;45.93;32.73;;;;;;;20.55;100.00;99432.70;1699582;83;21141;-59
2021/08/19 01:15:27;;;;;;;44.70;32.77;;;;;;;20.58;100.00;99423.69;1698291;83;21027;-60
2021/08/19 01:17:56;;;;;;;42.07;31.47;;;;;;;20.62;100.00;99426.06;1697512;83;21549;-60
2021/08/19 01:20:30;;;;;;;41.80;30.17;;;;;;;20.67;100.00;99425.24;1698955;83;21051;-60
2021/08/19 01:22:58;;;;;;;42.57;29.20;;;;;;;20.71;100.00;99432.91;1696867;84;21072;-60
2021/08/19 01:25:24;;;;;;;43.03;28.90;;;;;;;20.74;100.00;99431.05;1698307;84;21183;-60
2021/08/19 01:27:54;;;;;;;40.17;28.10;;;;;;;20.76;100.00;99441.36;1683776;83;20953;-59
2021/08/19 01:30:21;;;;;;;39.93;28.03;;;;;;;20.72;100.00;99438.99;1691829;83;21107;-59
2021/08/19 01:32:48;;;;;;;41.37;27.93;;;;;;;20.66;100.00;99440.88;1697687;84;21012;-60
2021/08/19 01:35:24;;;;;;;38.23;29.83;;;;;;;20.60;100.00;99445.91;1699868;83;20897;-60
2021/08/19 01:37:51;;;;;;;42.87;31.83;;;;;;;20.51;100.00;99440.38;1691615;83;21134;-60
2021/08/19 01:40:19;;;;;;;44.23;30.97;;;;;;;20.44;100.00;99440.37;1699234;83;21015;-60
2021/08/19 01:42:47;;;;;;;40.17;29.30;;;;;;;20.38;100.00;99440.39;1700166;84;21109;-60
2021/08/19 01:45:18;;;;;;;37.80;27.77;;;;;;;20.37;100.00;99441.95;1698990;83;21041;-59
2021/08/19 01:47:47;;;;;;;34.70;25.50;;;;;;;20.37;100.00;99443.28;1698726;83;21009;-60
2021/08/19 01:50:15;;;;;;;35.57;25.87;;;;;;;20.40;100.00;99445.41;1698320;83;20984;-60
2021/08/19 01:52:42;;;;;;;34.93;24.53;;;;;;;20.42;100.00;99447.27;1699509;83;20949;-60
2021/08/19 01:55:11;;;;;;;37.93;27.23;;;;;;;20.43;100.00;99450.70;1690525;84;21067;-60
2021/08/19 01:57:37;;;;;;;38.97;28.03;;;;;;;20.48;100.00;99440.09;1698725;84;20990;-60
2021/08/19 02:00:06;;;;;;;38.57;28.73;;;;;;;20.57;100.00;99436.67;1698973;84;21127;-60
2021/08/19 02:02:36;;;;;;;36.97;25.50;;;;;;;20.64;100.00;99438.48;1699176;83;20993;-60
2021/08/19 02:05:05;;;;;;;36.27;23.07;;;;;;;20.71;100.00;99437.41;1696177;84;21036;-60
2021/08/19 02:07:33;;;;;;;38.30;22.50;;;;;;;20.75;100.00;99441.90;1687577;84;20945;-59
2021/08/19 02:10:00;;;;;;;30.83;21.73;;;;;;;20.80;100.00;99431.30;1638439;86;21098;-59
2021/08/19 02:12:28;;;;;;;30.17;21.10;;;;;;;20.83;100.00;99428.09;1633359;86;21314;-60
2021/08/19 02:14:55;;;;;;;29.90;20.67;;;;;;;20.88;100.00;99423.33;1695622;83;22128;-60
2021/08/19 02:17:23;;;;;;;31.07;20.47;;;;;;;20.93;100.00;99421.19;1688457;83;21559;-61
2021/08/19 02:19:49;;;;;;;29.73;20.47;;;;;;;20.96;100.00;99430.71;1681485;84;20992;-60
2021/08/19 02:22:17;;;;;;;31.80;21.20;;;;;;;21.02;100.00;99434.91;1694533;83;20945;-61
2021/08/19 02:24:44;;;;;;;31.23;20.53;;;;;;;21.05;100.00;99434.37;1686082;83;21124;-61
2021/08/19 02:27:11;;;;;;;28.10;20.50;;;;;;;21.06;100.00;99437.80;1695001;84;21157;-61
2021/08/19 02:29:37;;;;;;;33.47;22.17;;;;;;;21.01;100.00;99438.63;1682825;84;20991;-59
2021/08/19 02:32:06;;;;;;;36.20;24.47;;;;;;;20.96;100.00;99449.80;1663141;84;21092;-61
2021/08/19 02:34:33;;;;;;;34.53;23.83;;;;;;;20.94;100.00;99452.70;1692801;84;21155;-60
2021/08/19 02:36:59;;;;;;;41.73;27.13;;;;;;;20.87;100.00;99448.21;1664761;84;21708;-59
2021/08/19 02:39:25;;;;;;;31.80;23.03;;;;;;;20.81;100.00;99447.45;1688313;84;21138;-59
2021/08/19 02:41:52;;;;;;;35.10;23.10;;;;;;;20.72;100.00;99449.08;1637974;87;21029;-59
2021/08/19 02:44:18;;;;;;;38.17;24.00;;;;;;;20.69;100.00;99453.59;1686038;84;21059;-58
2021/08/19 02:46:45;;;;;;;35.97;25.97;;;;;;;20.66;100.00;99455.44;1638536;86;21194;-59
2021/08/19 02:49:12;;;;;;;35.27;24.27;;;;;;;20.64;100.00;99454.37;1686819;84;21009;-58
2021/08/19 02:51:40;;;;;;;31.73;22.60;;;;;;;20.62;100.00;99452.54;1687819;84;21155;-59
2021/08/19 02:54:07;;;;;;;33.43;23.63;;;;;;;20.62;100.00;99451.21;1672800;84;21506;-59
2021/08/19 02:56:35;;;;;;;33.53;22.90;;;;;;;20.68;100.00;99454.63;1635917;86;20984;-59
2021/08/19 02:59:02;;;;;;;34.30;24.57;;;;;;;20.71;100.00;99446.69;1670579;84;21027;-60
2021/08/19 03:01:30;;;;;;;32.87;23.23;;;;;;;20.75;100.00;99447.73;1683017;80;21016;-59
2021/08/19 03:03:56;;;;;;;37.83;23.83;;;;;;;20.80;100.00;99458.33;1723626;82;21160;-60
2021/08/19 03:06:23;;;;;;;40.87;26.83;;;;;;;20.83;100.00;99455.91;1715564;82;21007;-59
2021/08/19 03:08:50;;;;;;;36.63;28.10;;;;;;;20.88;100.00;99455.12;1700148;82;21034;-60
2021/08/19 03:11:18;;;;;;;41.27;30.37;;;;;;;20.95;100.00;99464.08;1692921;82;20992;-60
2021/08/19 03:13:46;;;;;;;45.50;29.30;;;;;;;21.00;100.00;99462.76;1714011;82;20995;-59
2021/08/19 03:16:14;;;;;;;45.07;32.27;;;;;;;21.06;100.00;99460.33;1687965;83;21141;-59
2021/08/19 03:18:40;;;;;;;40.47;29.97;;;;;;;21.12;100.00;99457.39;1702856;82;21522;-60
2021/08/19 03:21:07;;;;;;;45.20;32.03;;;;;;;21.17;100.00;99460.55;1690749;82;21046;-60
2021/08/19 03:23:36;;;;;;;43.83;32.23;;;;;;;21.19;100.00;99461.62;1704097;82;20932;-60
2021/08/19 03:26:07;;;;;;;46.07;31.53;;;;;;;21.24;100.00;99469.53;1698172;82;21099;-60
2021/08/19 03:28:35;;;;;;;49.27;33.53;;;;;;;21.24;100.00;99472.19;1697056;83;21470;-60
2021/08/19 03:31:01;;;;;;;45.97;33.90;;;;;;;21.23;100.00;99473.26;1700454;82;21083;-60
2021/08/19 03:33:30;;;;;;;50.43;39.10;;;;;;;21.28;100.00;99481.97;1697227;83;21005;-60
2021/08/19 03:35:57;;;;;;;54.27;38.53;;;;;;;21.34;100.00;99486.76;1703989;82;21579;-60
2021/08/19 03:38:24;;;;;;;45.30;37.13;;;;;;;21.37;100.00;99478.27;1702534;83;21147;-60
2021/08/19 03:40:50;;;;;;;45.07;32.50;;;;;;;21.42;100.00;99476.11;1707160;82;21132;-60
2021/08/19 03:43:17;;;;;;;46.00;33.53;;;;;;;21.48;100.00;99477.14;1696468;82;20902;-61
2021/08/19 03:45:43;;;;;;;46.43;32.77;;;;;;;21.53;100.00;99471.80;1711672;82;21497;-60
2021/08/19 03:48:10;;;;;;;47.77;33.73;;;;;;;21.58;100.00;99478.93;1706354;82;20949;-59
2021/08/19 03:50:36;;;;;;;45.63;34.17;;;;;;;21.64;100.00;99477.05;1716323;82;21080;-60
2021/08/19 03:53:03;;;;;;;42.03;33.43;;;;;;;21.70;100.00;99476.72;1710739;82;21235;-61
2021/08/19 03:55:30;;;;;;;47.83;35.83;;;;;;;21.75;100.00;99478.03;1698807;82;21462;-61
2021/08/19 03:57:58;;;;;;;64.20;40.40;;;;;;;21.76;100.00;99485.45;1722223;82;21044;-60
2021/08/19 04:00:24;;;;;;;53.77;38.07;;;;;;;21.72;100.00;99487.87;1716532;82;20917;-61
2021/08/19 04:02:51;;;;;;;53.23;36.57;;;;;;;21.73;100.00;99492.63;1716692;81;21028;-60
2021/08/19 04:05:17;;;;;;;57.63;35.33;;;;;;;21.74;100.00;99491.55;1738772;82;21110;-60
2021/08/19 04:07:44;;;;;;;46.60;32.70;;;;;;;21.75;100.00;99489.19;1741059;82;20975;-61
2021/08/19 04:10:11;;;;;;;52.30;35.30;;;;;;;21.77;100.00;99487.03;1741272;82;20900;-59
2021/08/19 04:12:38;;;;;;;40.00;29.87;;;;;;;21.83;100.00;99481.97;1740230;82;21074;-59
2021/08/19 04:15:06;;;;;;;50.67;34.10;;;;;;;21.90;100.00;99476.35;1720608;81;21063;-61
2021/08/19 04:17:34;;;;;;;44.70;32.87;;;;;;;21.97;100.00;99472.82;1732179;81;21582;-60
2021/08/19 04:20:01;;;;;;;46.53;31.47;;;;;;;22.02;100.00;99474.13;1724860;81;20971;-61
2021/08/19 04:22:28;;;;;;;43.40;31.37;;;;;;;22.08;100.00;99483.62;1734605;81;21070;-60
2021/08/19 04:24:57;;;;;;;43.17;31.03;;;;;;;22.18;100.00;99481.46;1740989;81;20889;-60
2021/08/19 04:27:23;;;;;;;38.63;28.73;;;;;;;22.26;100.00;99477.66;1743484;81;21126;-60
2021/08/19 04:29:50;;;;;;;39.27;27.03;;;;;;;22.32;100.00;99496.47;1733591;81;21124;-60
2021/08/19 04:32:16;;;;;;;42.17;26.43;;;;;;;22.31;100.00;99491.42;1741388;81;20901;-60
2021/08/19 04:34:43;;;;;;;35.73;26.20;;;;;;;22.30;100.00;99486.65;1734934;81;21043;-60
2021/08/19 04:37:10;;;;;;;39.67;24.97;;;;;;;22.40;100.00;99489.77;1730803;81;21042;-60
2021/08/19 04:39:37;;;;;;;39.27;29.23;;;;;;;22.56;100.00;99483.77;1741925;81;21038;-61
2021/08/19 04:42:04;;;;;;;39.53;27.40;;;;;;;22.75;100.00;99482.50;1742998;81;21101;-61
2021/08/19 04:44:31;;;;;;;42.60;30.67;;;;;;;22.91;100.00;99477.30;1741434;81;21015;-61
2021/08/19 04:46:58;;;;;;;42.63;30.70;;;;;;;23.25;100.00;99475.03;1741543;81;21015;-60
2021/08/19 04:49:24;;;;;;;50.47;31.67;;;;;;;23.67;100.00;99470.22;1741883;81;21101;-60
2021/08/19 04:51:52;;;;;;;41.33;28.97;;;;;;;24.20;100.00;99461.14;1734836;81;21520;-61
2021/08/19 04:54:19;;;;;;;40.27;27.77;;;;;;;24.87;100.00;99450.87;1719867;81;22232;-61
2021/08/19 04:56:46;;;;;;;40.90;28.07;;;;;;;25.55;100.00;99457.19;1740642;81;20932;-60
2021/08/19 04:59:13;;;;;;;42.00;26.03;;;;;;;26.25;100.00;99453.66;1742429;81;20948;-61
2021/08/19 05:01:39;;;;;;;32.17;23.80;;;;;;;26.96;100.00;99452.31;1735308;81;21018;-61
2021/08/19 05:04:06;;;;;;;34.27;24.43;;;;;;;27.64;100.00;99455.62;1726722;82;20925;-60
2021/08/19 05:06:33;;;;;;;32.98;22.82;;;;;;;28.30;92.99;99453.27;1728827;81;21090;-60
2021/08/19 05:09:00;;;;;;;30.97;21.80;;;;;;;28.85;85.39;99456.42;1715667;82;21031;-58
2021/08/19 05:11:28;;;;;;;32.60;22.75;;;;;;;29.30;71.04;99449.92;1722129;82;21031;-59
2021/08/19 05:13:58;;;;;;;30.48;23.73;;;;;;;29.60;66.30;99451.21;1718695;82;21087;-61
2021/08/19 05:16:24;;;;;;;28.77;22.65;;;;;;;29.88;62.86;99458.69;1723487;82;21478;-59
2021/08/19 05:18:52;;;;;;;36.13;24.40;;;;;;;30.01;59.14;99454.38;1717688;82;20941;-58
2021/08/19 05:21:19;;;;;;;33.05;24.27;;;;;;;30.16;59.52;99451.64;1724544;82;21067;-59
2021/08/19 05:23:45;;;;;;;34.92;23.62;;;;;;;30.37;57.26;99449.41;1720400;82;20980;-59
2021/08/19 05:26:13;;;;;;;32.10;24.52;;;;;;;30.52;55.59;99448.75;1720901;82;20937;-59
2021/08/19 05:28:40;;;;;;;34.92;24.18;;;;;;;30.62;53.85;99442.93;1725686;82;20985;-58
2021/08/19 05:31:08;;;;;;;34.33;25.00;;;;;;;30.66;53.03;99440.36;1721843;82;21144;-60
2021/08/19 05:33:36;;;;;;;34.45;23.95;;;;;;;30.69;52.53;99443.16;1704043;82;22279;-61
2021/08/19 05:36:08;;;;;;;34.65;23.73;;;;;;;30.77;52.73;99440.94;1721584;82;21502;-61
2021/08/19 05:38:31;;;;;;;28.23;22.98;;;;;;;30.75;52.70;99441.04;1727208;82;20964;-60
2021/08/19 05:40:58;;;;;;;29.12;22.73;;;;;;;30.76;53.32;99438.03;1720674;82;21501;-59
2021/08/19 05:43:24;;;;;;;29.57;21.97;;;;;;;30.96;54.79;99434.19;1702470;83;21101;-61
2021/08/19 05:45:51;;;;;;;32.30;22.10;;;;;;;31.30;52.73;99427.51;1711511;82;20932;-60
2021/08/19 05:48:19;;;;;;;34.80;22.40;;;;;;;31.49;51.34;99422.84;1696027;82;21055;-61
2021/08/19 05:50:45;;;;;;;25.82;20.12;;;;;;;31.65;50.71;99423.66;1688190;83;21011;-61
2021/08/19 05:53:12;;;;;;;29.77;20.30;;;;;;;31.68;50.18;99425.67;1698904;82;21490;-59
2021/08/19 05:55:39;;;;;;;31.37;21.97;;;;;;;31.52;49.53;99427.55;1700581;84;22520;-58
2021/08/19 05:58:06;;;;;;;28.95;20.70;;;;;;;31.23;50.25;99436.13;1697712;82;21523;-59
2021/08/19 06:00:35;;;;;;;26.00;20.88;;;;;;;30.86;51.40;99435.42;1699033;82;20997;-58
2021/08/19 06:03:01;;;;;;;28.90;19.77;;;;;;;30.34;53.51;99430.70;1717317;82;21003;-58
2021/08/19 06:05:28;;;;;;;27.45;20.68;;;;;;;29.75;57.93;99431.80;1701968;82;21103;-58
2021/08/19 06:07:55;;;;;;;28.70;20.40;;;;;;;29.22;62.57;99433.33;1706421;82;21144;-59
2021/08/19 06:10:21;;;;;;;33.23;20.30;;;;;;;28.80;69.16;99437.28;1709075;82;21083;-60
2021/08/19 06:12:48;;;;;;;28.20;19.92;;;;;;;28.58;70.08;99441.02;1705115;82;21064;-59
2021/08/19 06:15:14;;;;;;;26.60;18.62;;;;;;;28.42;70.80;99433.30;1713327;82;20976;-60
2021/08/19 06:17:42;;;;;;;27.87;19.75;;;;;;;28.54;73.41;99432.61;1711441;82;21098;-60
2021/08/19 06:20:11;;;;;;;29.48;19.67;;;;;;;28.97;75.12;99424.86;1707059;82;20901;-60
2021/08/19 06:22:38;;;;;;;23.87;18.27;;;;;;;29.63;64.99;99430.98;1701410;84;20952;-60
2021/08/19 06:25:08;;;;;;;29.67;19.55;;;;;;;30.15;58.16;99423.14;1693685;83;21071;-59
2021/08/19 06:27:35;;;;;;;29.98;19.92;;;;;;;30.66;54.99;99433.62;1728917;82;21023;-61
2021/08/19 06:30:03;;;;;;;28.02;18.98;;;;;;;31.10;52.69;99427.85;1732916;82;21082;-61
2021/08/19 06:32:30;;;;;;;27.62;18.50;;;;;;;31.28;51.48;99429.72;1709834;82;21116;-61
2021/08/19 06:34:57;;;;;;;29.50;19.75;;;;;;;31.54;50.84;99427.97;1705315;82;21011;-61
2021/08/19 06:37:23;;;;;;;29.07;20.08;;;;;;;31.83;51.12;99433.56;1699738;83;21434;-59
2021/08/19 06:39:50;;;;;;;29.85;20.10;;;;;;;32.27;49.31;99435.44;1705975;81;21054;-61
2021/08/19 06:42:16;;;;;;;32.08;20.85;;;;;;;32.80;48.01;99431.88;1703880;82;21529;-60
2021/08/19 06:44:43;;;;;;;30.05;19.77;;;;;;;33.35;46.95;99434.04;1710176;82;21156;-60
2021/08/19 06:47:10;;;;;;;24.80;18.48;;;;;;;33.95;45.02;99431.71;1704760;82;21087;-60
2021/08/19 06:49:39;;;;;;;33.83;19.23;;;;;;;34.40;42.04;99434.22;1704367;82;21000;-59
2021/08/19 06:52:07;;;;;;;27.30;17.50;;;;;;;34.58;40.55;99433.14;1703584;82;21058;-60
2021/08/19 06:54:34;;;;;;;25.75;19.45;;;;;;;34.76;40.85;99432.05;1712134;82;20981;-61
2021/08/19 06:57:01;;;;;;;33.78;18.20;;;;;;;34.94;40.20;99429.59;1715579;82;22178;-60
2021/08/19 06:59:28;;;;;;;31.95;17.90;;;;;;;35.04;39.68;99435.73;1718135;82;21027;-59
2021/08/19 07:01:55;;;;;;;33.28;19.35;;;;;;;35.07;39.11;99437.13;1721318;82;21150;-61
2021/08/19 07:04:21;;;;;;;27.98;17.40;;;;;;;35.15;39.07;99439.93;1739169;81;21035;-61
2021/08/19 07:06:48;;;;;;;32.15;16.85;;;;;;;35.19;38.39;99438.05;1736814;81;20920;-60
2021/08/19 07:09:15;;;;;;;32.40;16.42;;;;;;;35.36;38.75;99438.84;1726307;81;21160;-61
2021/08/19 07:11:43;;;;;;;39.00;18.12;;;;;;;35.54;37.75;99429.59;1718298;82;20933;-61
2021/08/19 07:14:10;;;;;;;35.23;16.93;;;;;;;35.64;38.13;99433.55;1726387;81;21099;-61
2021/08/19 07:16:37;;;;;;;38.88;18.55;;;;;;;35.89;37.82;99434.58;1729772;81;21064;-61
2021/08/19 07:19:05;;;;;;;40.45;16.75;;;;;;;36.21;37.32;99436.23;1737208;81;20997;-61
2021/08/19 07:21:32;;;;;;;38.95;16.07;;;;;;;36.27;35.63;99435.31;1728332;81;21070;-60
2021/08/19 07:24:00;;;;;;;37.67;17.10;;;;;;;36.29;35.62;99432.98;1722283;81;20936;-61
2021/08/19 07:26:27;;;;;;;34.53;16.17;;;;;;;36.48;35.00;99430.08;1733340;81;20968;-61
2021/08/19 07:28:57;;;;;;;40.08;16.65;;;;;;;36.67;35.54;99432.30;1741061;81;20908;-60
2021/08/19 07:31:25;;;;;;;37.93;17.15;;;;;;;36.95;34.63;99433.08;1728860;81;20948;-61
2021/08/19 07:33:51;;;;;;;42.33;16.70;;;;;;;37.12;33.82;99432.95;1719057;81;22372;-60
2021/08/19 07:36:17;;;;;;;37.95;16.00;;;;;;;37.47;33.98;99429.03;1732239;81;21549;-61
2021/08/19 07:38:46;;;;;;;45.10;17.55;;;;;;;38.22;32.44;99424.25;1742382;81;21085;-60
2021/08/19 07:41:13;;;;;;;39.80;16.75;;;;;;;38.96;30.37;99430.77;1741188;81;20987;-61
2021/08/19 07:43:39;;;;;;;52.10;19.85;;;;;;;38.97;29.59;99426.09;1741688;81;20929;-61
2021/08/19 07:46:06;;;;;;;43.73;17.10;;;;;;;38.77;30.20;99422.44;1744234;81;21627;-58
2021/08/19 07:48:32;;;;;;;37.60;16.45;;;;;;;38.89;30.76;99421.26;1737466;81;20932;-61
2021/08/19 07:51:01;;;;;;;41.58;17.92;;;;;;;38.96;29.95;99427.27;1727626;82;20977;-60
2021/08/19 07:53:29;;;;;;;37.70;15.58;;;;;;;38.77;29.98;99419.72;1706542;83;20964;-59
2021/08/19 07:55:55;;;;;;;37.15;16.70;;;;;;;38.67;30.10;99418.56;1722834;81;21541;-60
2021/08/19 07:58:22;;;;;;;51.28;18.10;;;;;;;38.41;30.18;99418.42;1729635;81;21137;-62
2021/08/19 08:00:48;;;;;;;44.65;18.32;;;;;;;38.12;30.96;99414.94;1732798;81;20912;-60
2021/08/19 08:03:15;;;;;;;46.65;18.05;;;;;;;38.06;31.37;99412.41;1744802;81;20986;-61
2021/08/19 08:05:42;;;;;;;41.18;17.45;;;;;;;38.14;30.75;99410.46;1731749;81;21536;-62
2021/08/19 08:08:13;;;;;;;43.75;15.98;;;;;;;38.29;30.72;99403.83;1742509;81;21106;-61
2021/08/19 08:10:42;;;;;;;38.15;17.40;;;;;;;38.24;30.79;99402.88;1715772;82;21873;-60
2021/08/19 08:13:09;;;;;;;47.77;18.97;;;;;;;38.27;30.96;99399.37;1702771;83;20976;-59
2021/08/19 08:15:35;;;;;;;41.23;18.40;;;;;;;38.37;30.73;99398.59;1699696;83;20991;-60
2021/08/19 08:18:03;;;;;;;44.03;16.57;;;;;;;38.64;30.65;99399.51;1739769;81;21117;-61
2021/08/19 08:20:31;;;;;;;45.17;18.65;;;;;;;39.03;29.43;99400.00;1720085;82;21114;-60
2021/08/19 08:22:58;;;;;;;42.73;16.93;;;;;;;39.11;29.18;99400.92;1710425;82;21133;-60
2021/08/19 08:25:27;;;;;;;36.40;15.55;;;;;;;39.08;29.55;99388.67;1723492;81;21048;-60
2021/08/19 08:28:10;;;;;;;40.25;16.73;;;;;;;39.28;29.11;99389.75;1732715;81;21001;-60
2021/08/19 08:30:34;;;;;;;;;;;;;;;39.67;28.15;99392.83;1715675;82;20989;-60
2021/08/19 08:33:01;;;;;;;56.30;20.25;;;;;;;40.00;28.10;99382.44;1717743;82;20087;-61
2021/08/19 08:35:30;;;;;;;39.13;15.88;;;;;;;40.12;26.84;99370.48;1723441;82;21084;-60
2021/08/19 08:37:56;;;;;;;46.00;16.57;;;;;;;40.23;25.15;99376.41;1739834;81;21122;-61
2021/08/19 08:40:23;;;;;;;39.98;16.55;;;;;;;39.65;26.08;99382.89;1736719;81;21368;-60
2021/08/19 08:42:50;;;;;;;42.15;15.83;;;;;;;39.39;27.10;99376.06;1711520;82;21086;-59
2021/08/19 08:45:18;;;;;;;40.33;15.70;;;;;;;39.34;26.13;99375.13;1708207;82;20901;-58
2021/08/19 08:47:45;;;;;;;39.00;14.78;;;;;;;39.11;25.45;99374.26;1718891;81;21850;-58
2021/08/19 08:50:13;;;;;;;36.68;16.15;;;;;;;38.85;25.87;99377.67;1709945;81;21692;-60
2021/08/19 08:52:41;;;;;;;36.45;14.47;;;;;;;38.53;25.36;99373.69;1716197;81;21801;-60
2021/08/19 08:55:10;;;;;;;40.08;15.72;;;;;;;38.17;26.30;99381.88;1718346;81;20996;-60
2021/08/19 08:57:38;;;;;;;34.38;15.65;;;;;;;37.94;26.78;99371.99;1691193;81;38324;-59
2021/08/19 09:00:06;;;;;;;36.25;16.07;;;;;;;37.80;27.11;99365.16;1714414;81;21149;-60
2021/08/19 09:02:33;;;;;;;33.65;15.53;;;;;;;37.83;27.33;99361.08;1714500;81;20984;-59
2021/08/19 09:05:27;;;;;;;42.25;15.78;;;;;;;37.96;27.26;99359.56;1710261;82;20992;-60
2021/08/19 09:08:01;;;;;;;42.03;16.15;;;;;;;38.16;27.35;99367.31;1704124;82;21628;-58
2021/08/19 09:10:31;;;;;;;40.75;14.38;;;;;;;38.45;26.41;99362.04;1698147;83;21033;-60
2021/08/19 09:13:13;;;;;;;35.68;15.58;;;;;;;38.57;26.65;99356.75;1705328;82;21142;-59
2021/08/19 09:15:39;;;;;;;36.45;15.05;;;;;;;38.97;26.01;99351.93;1697460;82;21068;-60
2021/08/19 09:18:06;;;;;;;35.20;15.68;;;;;;;39.40;24.71;99352.50;1698120;82;21027;-60
2021/08/19 09:20:36;;;;;;;36.88;15.05;;;;;;;39.57;24.80;99350.03;1704838;82;20992;-59
2021/08/19 09:23:09;;;;;;;29.65;13.53;;;;;;;39.51;24.84;99339.36;1697077;82;26895;-60
2021/08/19 09:25:44;;;;;;;41.08;14.38;;;;;;;39.44;23.84;99353.84;1701155;82;21209;-59
2021/08/19 09:28:24;;;;;;;52.60;15.63;;;;;;;39.12;24.08;99343.87;1709167;82;21482;-59
2021/08/19 09:30:59;;;;;;;34.23;13.68;;;;;;;38.71;24.11;99349.09;1682577;82;20996;-60
2021/08/19 09:33:29;;;;;;;36.38;13.95;;;;;;;38.46;24.12;99346.48;1702426;82;21056;-60
2021/08/19 09:35:58;;;;;;;28.65;12.82;;;;;;;38.53;24.27;99341.01;1704115;82;21535;-60
2021/08/19 09:38:26;;;;;;;28.25;12.85;;;;;;;38.60;24.27;99344.27;1708816;82;21088;-61
2021/08/19 09:41:21;;;;;;;31.10;13.05;;;;;;;38.54;24.70;99344.50;1698711;82;21483;-60
2021/08/19 09:43:53;;;;;;;27.48;11.48;;;;;;;38.67;24.19;99334.72;1693224;83;20992;-61
2021/08/19 09:46:35;;;;;;;30.77;12.60;;;;;;;38.93;23.50;99323.33;1706641;82;21007;-60
2021/08/19 09:49:22;;;;;;;27.60;12.63;;;;;;;39.23;23.53;99327.45;1692032;83;21114;-59
2021/08/19 09:52:08;;;;;;;24.35;11.53;;;;;;;39.65;22.58;99323.66;1654495;82;21117;-60
2021/08/19 09:54:38;;;;;;;20.97;11.25;;;;;;;39.58;21.46;99313.39;1683912;82;21131;-60
2021/08/19 09:57:05;;;;;;;20.65;11.68;;;;;;;39.32;21.38;99318.25;1701842;82;21050;-60
2021/08/19 09:59:37;;;;;;;25.00;11.30;;;;;;;39.21;21.28;99316.19;1708663;82;21079;-59
2021/08/19 10:02:08;;;;;;;17.42;10.80;;;;;;;39.14;20.74;99316.23;1708625;82;21068;-59
2021/08/19 10:04:36;;;;;;;23.38;11.28;;;;;;;39.08;21.32;99312.36;1708961;81;22405;-60
2021/08/19 10:07:03;;;;;;;18.27;10.90;;;;;;;39.02;19.72;99313.95;1711836;82;20987;-60
2021/08/19 10:09:31;;;;;;;21.73;10.80;;;;;;;38.89;19.68;99317.72;1711073;82;21001;-60
2021/08/19 10:11:58;;;;;;;21.35;10.25;;;;;;;38.86;19.62;99312.47;1672136;83;21059;-60
2021/08/19 10:14:28;;;;;;;17.15;10.55;;;;;;;38.89;19.66;99320.45;1709572;82;21528;-59
2021/08/19 10:16:55;;;;;;;21.15;9.40;;;;;;;38.94;19.47;99310.48;1717535;82;21184;-60
2021/08/19 10:19:41;;;;;;;19.37;10.53;;;;;;;38.99;19.99;99314.77;1720897;82;21071;-60
2021/08/19 10:22:08;;;;;;;17.02;10.25;;;;;;;39.14;20.26;99311.55;1707885;82;21465;-61
2021/08/19 10:24:38;;;;;;;17.50;9.73;;;;;;;39.41;20.55;99310.41;1710505;82;20960;-60
2021/08/19 10:27:26;;;;;;;14.20;9.60;;;;;;;39.68;19.01;99311.20;1707515;82;21138;-60
2021/08/19 10:29:59;;;;;;;15.25;10.23;;;;;;;39.78;18.89;99310.34;1719593;82;22095;-60
2021/08/19 10:32:32;;;;;;;15.28;9.08;;;;;;;39.92;17.98;99310.77;1703200;82;20953;-62
2021/08/19 10:35:09;;;;;;;17.98;10.98;;;;;;;39.99;18.02;99309.94;1706532;82;21494;-60
2021/08/19 10:38:00;;;;;;;15.95;9.48;;;;;;;39.95;18.52;99313.30;1705643;82;21026;-62
2021/08/19 10:40:37;;;;;;;17.35;10.05;;;;;;;39.88;18.11;99303.98;1701510;84;21494;-60
2021/08/19 10:43:32;;;;;;;14.78;9.63;;;;;;;39.82;18.44;99300.77;1712593;82;21822;-62
2021/08/19 10:46:14;;;;;;;16.65;10.00;;;;;;;40.00;18.84;99300.56;1698465;82;21031;-60
2021/08/19 10:48:50;;;;;;;16.37;10.15;;;;;;;39.98;17.92;99305.08;1698099;82;21069;-59
2021/08/19 10:51:17;;;;;;;18.85;10.48;;;;;;;39.63;17.83;99297.98;1685062;81;21077;-59
2021/08/19 10:53:43;;;;;;;12.90;9.28;;;;;;;39.33;18.13;99291.20;1723323;82;20948;-60
2021/08/19 10:56:12;;;;;;;15.78;9.88;;;;;;;39.21;19.03;99299.03;1723020;82;20925;-61
2021/08/19 10:58:41;;;;;;;18.98;9.90;;;;;;;39.13;18.24;99296.94;1723937;82;21012;-60
2021/08/19 11:01:22;;;;;;;20.97;10.00;;;;;;;38.87;18.27;99290.88;1720678;82;20897;-60
2021/08/19 11:03:52;;;;;;;15.80;9.53;;;;;;;38.79;18.82;99292.08;1721983;81;20940;-60
2021/08/19 11:06:26;;;;;;;15.70;9.60;;;;;;;38.83;18.62;99288.77;1742261;81;20983;-60
2021/08/19 11:08:58;;;;;;;14.43;9.20;;;;;;;38.86;17.78;99285.81;1719051;82;21001;-60
2021/08/19 11:11:30;;;;;;;15.18;10.30;;;;;;;38.76;17.50;99286.05;1676370;84;21035;-60
2021/08/19 11:14:13;;;;;;;13.62;10.10;;;;;;;38.68;17.98;99277.70;1669318;84;21526;-60
2021/08/19 11:16:42;;;;;;;17.02;10.30;;;;;;;38.77;17.86;99271.25;1721487;82;21417;-59
2021/08/19 11:19:28;;;;;;;;;;;;;;;38.98;18.17;99270.36;1700943;83;20941;-60
2021/08/19 11:22:02;;;;;;;13.25;10.50;;;;;;;39.20;17.35;99270.23;1744183;81;21194;-59